Time;durP1;ratioP1;P1;durP2;ratioP2;P2;SDS_P1;SDS_P2;PMS_P1;PMS_P2;Temp;Humidity;BMP_temperature;BMP_pressure;BME280_temperature;BME280_humidity;BME280_pressure;Samples;Min_cycle;Max_cycle;Signal;HPM_P1;HPM_P2
2021/08/13 00:01:56;;;;;;;4.83;4.37;;;;;;;;;;5045218;28;20480;-83
2021/08/13 00:04:22;;;;;;;5.40;4.90;;;;;;;;;;5033542;28;20460;-83
2021/08/13 00:06:50;;;;;;;4.60;4.20;;;;;;;;;;5042467;28;20478;-82
2021/08/13 00:09:16;;;;;;;5.73;4.40;;;;;;;;;;5045572;28;20536;-83
2021/08/13 00:11:42;;;;;;;5.17;4.53;;;;;;;;;;5043191;28;20445;-83
2021/08/13 00:14:09;;;;;;;6.47;5.87;;;;;;;;;;5028788;28;20993;-83
2021/08/13 00:16:35;;;;;;;6.30;4.80;;;;;;;;;;5034773;28;20438;-83
2021/08/13 00:19:01;;;;;;;7.53;5.20;;;;;;;;;;5043583;28;20485;-83
2021/08/13 00:21:27;;;;;;;7.25;5.82;;;;;;;;;;5044540;28;20446;-83
2021/08/13 00:23:53;;;;;;;6.28;5.07;;;;;;;;;;5048020;28;20174;-83
2021/08/13 00:26:19;;;;;;;6.05;4.80;;;;;;;;;;5044697;28;20172;-83
2021/08/13 00:28:45;;;;;;;5.95;4.40;;;;;;;;;;5047889;28;20174;-83
2021/08/13 00:31:11;;;;;;;7.63;5.03;;;;;;;;;;5046559;28;20287;-82
2021/08/13 00:33:37;;;;;;;9.30;5.10;;;;;;;;;;5046732;28;20548;-83
2021/08/13 00:36:03;;;;;;;5.67;4.83;;;;;;;;;;5048426;28;20537;-83
2021/08/13 00:38:29;;;;;;;6.97;6.30;;;;;;;;;;5045344;28;20943;-83
2021/08/13 00:40:55;;;;;;;5.43;4.95;;;;;;;;;;5041006;28;20175;-82
2021/08/13 00:43:22;;;;;;;5.32;4.40;;;;;;;;;;5035270;28;20244;-83
2021/08/13 00:45:48;;;;;;;6.10;4.70;;;;;;;;;;5039728;28;20184;-82
2021/08/13 00:48:14;;;;;;;5.47;4.68;;;;;;;;;;5045679;28;20410;-83
2021/08/13 00:50:40;;;;;;;6.10;4.70;;;;;;;;;;5046659;28;20253;-83
2021/08/13 00:53:07;;;;;;;7.90;5.88;;;;;;;;;;5043422;28;20516;-83
2021/08/13 00:55:33;;;;;;;5.80;5.28;;;;;;;;;;5049463;28;20175;-83
2021/08/13 00:57:59;;;;;;;5.45;5.03;;;;;;;;;;5034910;28;20214;-83
2021/08/13 01:00:25;;;;;;;5.30;4.80;;;;;;;;;;5035421;28;20202;-83
2021/08/13 01:02:51;;;;;;;5.47;4.97;;;;;;;;;;5034331;28;20185;-83
2021/08/13 01:05:18;;;;;;;5.97;5.25;;;;;;;;;;5027813;28;20194;-83
2021/08/13 01:07:44;;;;;;;6.30;5.20;;;;;;;;;;5039679;28;20179;-83
2021/08/13 01:10:11;;;;;;;6.32;4.72;;;;;;;;;;5034609;28;20199;-82
2021/08/13 01:12:40;;;;;;;5.80;5.05;;;;;;;;;;5037235;28;20268;-83
2021/08/13 01:15:08;;;;;;;5.43;4.60;;;;;;;;;;5046831;28;20213;-83
2021/08/13 01:17:45;;;;;;;5.35;4.85;;;;;;;;;;5047154;28;20206;-82
2021/08/13 01:20:17;;;;;;;6.57;5.43;;;;;;;;;;5043410;28;20239;-83
2021/08/13 01:22:49;;;;;;;4.95;4.55;;;;;;;;;;5040847;28;20178;-83
2021/08/13 01:25:19;;;;;;;4.65;4.20;;;;;;;;;;5045076;28;20453;-83
2021/08/13 01:27:45;;;;;;;5.05;4.55;;;;;;;;;;5044499;28;20664;-83
2021/08/13 01:30:13;;;;;;;5.50;5.00;;;;;;;;;;5045520;28;20196;-83
2021/08/13 01:32:42;;;;;;;5.13;4.63;;;;;;;;;;5043593;28;20186;-83
2021/08/13 01:35:12;;;;;;;6.70;5.38;;;;;;;;;;5028196;28;20335;-82
2021/08/13 01:37:47;;;;;;;5.15;4.68;;;;;;;;;;5043314;28;20245;-83
2021/08/13 01:40:15;;;;;;;6.53;5.20;;;;;;;;;;5042738;28;20186;-83
2021/08/13 01:42:43;;;;;;;5.43;4.78;;;;;;;;;;5044424;28;20190;-83
2021/08/13 01:45:10;;;;;;;4.85;4.40;;;;;;;;;;5044386;28;20692;-83
2021/08/13 01:47:36;;;;;;;5.00;4.43;;;;;;;;;;5030964;28;20209;-83
2021/08/13 01:50:03;;;;;;;5.70;4.50;;;;;;;;;;5042573;28;20178;-82
2021/08/13 01:52:29;;;;;;;7.47;5.30;;;;;;;;;;5047734;28;20216;-83
2021/08/13 01:54:55;;;;;;;6.45;5.03;;;;;;;;;;5039324;28;20193;-83
2021/08/13 01:57:22;;;;;;;5.25;4.75;;;;;;;;;;5043966;28;20278;-83
2021/08/13 01:59:49;;;;;;;6.47;5.10;;;;;;;;;;5045807;28;20241;-83
2021/08/13 02:02:15;;;;;;;4.90;4.50;;;;;;;;;;5027329;28;20179;-83
2021/08/13 02:04:42;;;;;;;5.18;4.57;;;;;;;;;;5030988;28;20182;-82
2021/08/13 02:07:10;;;;;;;6.80;4.80;;;;;;;;;;5041705;28;20186;-83
2021/08/13 02:09:36;;;;;;;7.82;5.25;;;;;;;;;;5041919;28;20194;-83
2021/08/13 02:12:03;;;;;;;7.03;4.78;;;;;;;;;;5044695;28;20177;-82
2021/08/13 02:14:29;;;;;;;6.68;5.00;;;;;;;;;;5042834;28;20189;-83
2021/08/13 02:16:56;;;;;;;5.63;4.10;;;;;;;;;;5027920;28;20213;-83
2021/08/13 02:19:22;;;;;;;6.30;5.03;;;;;;;;;;5035934;28;20482;-83
2021/08/13 02:21:49;;;;;;;6.40;4.97;;;;;;;;;;5039298;28;20178;-83
2021/08/13 02:24:17;;;;;;;4.63;4.20;;;;;;;;;;5042655;28;20444;-83
2021/08/13 02:26:44;;;;;;;5.75;5.25;;;;;;;;;;5027354;28;20179;-83
2021/08/13 02:29:10;;;;;;;5.63;4.60;;;;;;;;;;5027093;28;20178;-83
2021/08/13 02:31:36;;;;;;;5.97;4.63;;;;;;;;;;5030096;28;20190;-83
2021/08/13 02:34:02;;;;;;;5.35;4.18;;;;;;;;;;5039319;28;20203;-83
2021/08/13 02:36:36;;;;;;;5.68;5.18;;;;;;;;;;5039342;28;20202;-83
2021/08/13 02:39:07;;;;;;;5.18;4.65;;;;;;;;;;5031404;28;20185;-83
2021/08/13 02:41:34;;;;;;;8.13;4.90;;;;;;;;;;5044479;28;20664;-83
2021/08/13 02:44:05;;;;;;;6.10;4.90;;;;;;;;;;5028124;28;20174;-83
2021/08/13 02:46:45;;;;;;;6.63;4.57;;;;;;;;;;5039943;28;20196;-83
2021/08/13 02:49:11;;;;;;;5.70;5.05;;;;;;;;;;5042228;28;20196;-82
2021/08/13 02:51:40;;;;;;;4.93;4.53;;;;;;;;;;5044307;28;20185;-84
2021/08/13 02:54:07;;;;;;;6.03;4.72;;;;;;;;;;5040387;28;20278;-83
2021/08/13 02:56:34;;;;;;;6.65;4.78;;;;;;;;;;5043344;28;20232;-83
2021/08/13 02:59:02;;;;;;;4.75;4.10;;;;;;;;;;5042873;28;20205;-83
2021/08/13 03:01:29;;;;;;;5.53;4.97;;;;;;;;;;5058123;28;20464;-83
2021/08/13 03:03:55;;;;;;;5.22;4.72;;;;;;;;;;5043096;28;20186;-83
2021/08/13 03:06:24;;;;;;;5.28;4.57;;;;;;;;;;5045667;28;20653;-83
2021/08/13 03:08:50;;;;;;;4.70;4.35;;;;;;;;;;5043747;28;20198;-83
2021/08/13 03:11:18;;;;;;;4.88;4.47;;;;;;;;;;5042060;28;20202;-83
2021/08/13 03:13:44;;;;;;;4.38;3.90;;;;;;;;;;5043747;28;20178;-83
2021/08/13 03:16:11;;;;;;;5.30;4.80;;;;;;;;;;5044576;28;20201;-83
2021/08/13 03:18:39;;;;;;;6.25;4.75;;;;;;;;;;5038314;28;20214;-83
2021/08/13 03:21:05;;;;;;;5.00;4.50;;;;;;;;;;5031844;28;20190;-83
2021/08/13 03:23:31;;;;;;;9.40;4.90;;;;;;;;;;5042024;28;20173;-84
2021/08/13 03:25:58;;;;;;;4.93;4.43;;;;;;;;;;5038221;28;20466;-83
2021/08/13 03:28:24;;;;;;;5.63;4.82;;;;;;;;;;5044822;28;20221;-84
2021/08/13 03:30:50;;;;;;;7.60;5.05;;;;;;;;;;5044203;28;20190;-83
2021/08/13 03:33:16;;;;;;;4.78;4.35;;;;;;;;;;5041898;28;20173;-83
2021/08/13 03:35:44;;;;;;;5.10;4.20;;;;;;;;;;5039973;28;20202;-83
2021/08/13 03:38:10;;;;;;;4.93;4.45;;;;;;;;;;5028547;28;20182;-82
2021/08/13 03:40:36;;;;;;;5.28;4.65;;;;;;;;;;5035746;28;20684;-83
2021/08/13 03:43:03;;;;;;;5.38;4.32;;;;;;;;;;5042477;28;20210;-82
2021/08/13 03:45:29;;;;;;;6.55;4.10;;;;;;;;;;5044036;28;20191;-83
2021/08/13 03:47:55;;;;;;;6.47;5.07;;;;;;;;;;5034550;28;20178;-83
2021/08/13 03:50:21;;;;;;;4.20;3.78;;;;;;;;;;5030155;28;20201;-83
2021/08/13 03:52:47;;;;;;;5.95;4.20;;;;;;;;;;5031939;28;20178;-83
2021/08/13 03:55:13;;;;;;;5.97;4.60;;;;;;;;;;5043907;28;20190;-83
2021/08/13 03:57:43;;;;;;;6.90;4.88;;;;;;;;;;5047857;28;20224;-83
2021/08/13 04:00:10;;;;;;;5.28;4.22;;;;;;;;;;5044869;28;20190;-83
2021/08/13 04:02:36;;;;;;;6.82;4.32;;;;;;;;;;5046305;28;20746;-82
2021/08/13 04:05:03;;;;;;;4.85;4.28;;;;;;;;;;5028816;28;20179;-83
2021/08/13 04:07:29;;;;;;;5.10;4.00;;;;;;;;;;5034048;28;20297;-83
2021/08/13 04:09:55;;;;;;;5.77;5.13;;;;;;;;;;5043409;28;20795;-83
2021/08/13 04:12:21;;;;;;;5.00;4.60;;;;;;;;;;5045283;28;20460;-82
2021/08/13 04:14:47;;;;;;;5.30;4.75;;;;;;;;;;5027805;28;20186;-83
2021/08/13 04:17:13;;;;;;;6.07;4.67;;;;;;;;;;5042902;28;20332;-83
2021/08/13 04:19:41;;;;;;;5.03;4.20;;;;;;;;;;5034423;28;20536;-83
2021/08/13 04:22:07;;;;;;;5.70;3.58;;;;;;;;;;5045719;28;20437;-83
2021/08/13 04:24:34;;;;;;;5.40;4.15;;;;;;;;;;5042612;28;20250;-83
2021/08/13 04:27:03;;;;;;;5.50;4.80;;;;;;;;;;5033960;28;20185;-83
2021/08/13 04:29:29;;;;;;;6.70;4.15;;;;;;;;;;5045029;28;20275;-83
2021/08/13 04:31:55;;;;;;;6.70;4.07;;;;;;;;;;5029451;28;20645;-83
2021/08/13 04:34:21;;;;;;;4.97;4.47;;;;;;;;;;5034172;28;20533;-83
2021/08/13 04:36:47;;;;;;;5.05;4.32;;;;;;;;;;5039928;28;20499;-83
2021/08/13 04:39:13;;;;;;;4.90;4.43;;;;;;;;;;5044016;28;20178;-83
2021/08/13 04:41:39;;;;;;;5.40;4.35;;;;;;;;;;5031994;28;20185;-83
2021/08/13 04:44:06;;;;;;;4.47;3.85;;;;;;;;;;5043666;28;20170;-83
2021/08/13 04:46:31;;;;;;;5.18;4.60;;;;;;;;;;5035867;28;20185;-83
2021/08/13 04:48:57;;;;;;;4.40;3.83;;;;;;;;;;5035882;28;20190;-83
2021/08/13 04:51:23;;;;;;;4.30;3.90;;;;;;;;;;5037431;28;20815;-82
2021/08/13 04:53:49;;;;;;;4.85;3.92;;;;;;;;;;5043481;28;20467;-84
2021/08/13 04:56:15;;;;;;;4.23;3.43;;;;;;;;;;5042138;28;20194;-83
2021/08/13 04:58:41;;;;;;;4.93;4.53;;;;;;;;;;5054302;28;20419;-83
2021/08/13 05:01:07;;;;;;;6.23;5.10;;;;;;;;;;5046314;28;20440;-83
2021/08/13 05:03:33;;;;;;;4.40;4.00;;;;;;;;;;5044585;28;20478;-83
2021/08/13 05:05:59;;;;;;;4.95;4.40;;;;;;;;;;5046366;28;20478;-83
2021/08/13 05:08:25;;;;;;;4.33;3.90;;;;;;;;;;5030930;28;20177;-83
2021/08/13 05:10:51;;;;;;;4.90;3.60;;;;;;;;;;5046359;28;20405;-83
2021/08/13 05:13:17;;;;;;;4.60;4.00;;;;;;;;;;5045419;28;20421;-83
2021/08/13 05:15:43;;;;;;;4.60;4.20;;;;;;;;;;5040121;28;20549;-85
2021/08/13 05:18:09;;;;;;;6.23;4.20;;;;;;;;;;5036512;28;20205;-85
2021/08/13 05:20:35;;;;;;;4.73;4.30;;;;;;;;;;5044584;28;20455;-85
2021/08/13 05:23:01;;;;;;;6.07;4.53;;;;;;;;;;5028993;28;20448;-85
2021/08/13 05:25:27;;;;;;;7.72;4.40;;;;;;;;;;5038746;28;20186;-85
2021/08/13 05:27:53;;;;;;;6.33;3.80;;;;;;;;;;5044834;28;20182;-85
2021/08/13 05:30:19;;;;;;;7.30;4.60;;;;;;;;;;5045023;28;20455;-85
2021/08/13 05:32:50;;;;;;;4.57;4.17;;;;;;;;;;5045515;28;20486;-85
2021/08/13 05:35:16;;;;;;;5.97;4.25;;;;;;;;;;5042049;28;20488;-85
2021/08/13 05:37:42;;;;;;;5.15;4.65;;;;;;;;;;5044724;28;20202;-84
2021/08/13 05:40:10;;;;;;;5.07;4.22;;;;;;;;;;5044623;28;20249;-84
2021/08/13 05:42:36;;;;;;;5.80;3.90;;;;;;;;;;5045966;28;20182;-85
2021/08/13 05:45:02;;;;;;;3.90;3.50;;;;;;;;;;5041932;28;20178;-85
2021/08/13 05:47:28;;;;;;;5.18;4.45;;;;;;;;;;5044120;28;20271;-85
2021/08/13 05:49:54;;;;;;;4.45;3.72;;;;;;;;;;5030180;28;20177;-84
2021/08/13 05:52:20;;;;;;;5.50;3.80;;;;;;;;;;5044575;28;20190;-85
2021/08/13 05:54:46;;;;;;;3.70;3.45;;;;;;;;;;5040448;28;20440;-85
2021/08/13 05:57:12;;;;;;;5.50;3.60;;;;;;;;;;5045387;28;20201;-85
2021/08/13 05:59:38;;;;;;;5.40;3.47;;;;;;;;;;5043197;28;20437;-85
2021/08/13 06:02:04;;;;;;;5.53;4.00;;;;;;;;;;5026192;28;20185;-85
2021/08/13 06:04:30;;;;;;;5.20;3.75;;;;;;;;;;5046107;28;20445;-85
2021/08/13 06:06:56;;;;;;;6.40;4.03;;;;;;;;;;5038001;28;20190;-85
2021/08/13 06:09:22;;;;;;;4.20;3.77;;;;;;;;;;5035601;28;20439;-85
2021/08/13 06:11:48;;;;;;;4.27;3.87;;;;;;;;;;5045170;28;20447;-85
2021/08/13 06:14:14;;;;;;;4.60;3.70;;;;;;;;;;5027897;28;20425;-85
2021/08/13 06:16:40;;;;;;;4.45;3.45;;;;;;;;;;5031452;28;20190;-85
2021/08/13 06:19:06;;;;;;;3.67;3.33;;;;;;;;;;5033696;28;20241;-85
2021/08/13 06:21:32;;;;;;;3.65;3.28;;;;;;;;;;5033033;28;20437;-85
2021/08/13 06:23:58;;;;;;;4.03;3.63;;;;;;;;;;5031329;28;20198;-85
2021/08/13 06:26:24;;;;;;;3.72;3.35;;;;;;;;;;5045188;28;20436;-85
2021/08/13 06:28:50;;;;;;;4.43;3.50;;;;;;;;;;5027912;28;20229;-85
2021/08/13 06:31:16;;;;;;;4.95;4.07;;;;;;;;;;5043150;28;20235;-85
2021/08/13 06:33:42;;;;;;;4.68;3.70;;;;;;;;;;5042949;28;20192;-85
2021/08/13 06:36:08;;;;;;;4.60;3.42;;;;;;;;;;5044398;28;20217;-85
2021/08/13 06:38:34;;;;;;;3.95;3.50;;;;;;;;;;5043001;28;20337;-85
2021/08/13 06:41:00;;;;;;;3.97;3.57;;;;;;;;;;5027509;28;20289;-85
2021/08/13 06:43:26;;;;;;;3.87;3.40;;;;;;;;;;5031160;28;20476;-85
2021/08/13 06:45:52;;;;;;;6.20;3.20;;;;;;;;;;5032956;28;20418;-85
2021/08/13 06:48:18;;;;;;;5.07;3.40;;;;;;;;;;5035177;28;20462;-85
2021/08/13 06:50:44;;;;;;;4.33;3.93;;;;;;;;;;5039654;28;20437;-85
2021/08/13 06:53:10;;;;;;;4.53;4.13;;;;;;;;;;5040895;28;20413;-85
2021/08/13 06:55:36;;;;;;;4.38;3.55;;;;;;;;;;5031150;28;20171;-83
2021/08/13 06:58:05;;;;;;;4.50;4.10;;;;;;;;;;5041559;28;20217;-85
2021/08/13 07:00:31;;;;;;;4.25;3.85;;;;;;;;;;5040202;28;20450;-85
2021/08/13 07:02:57;;;;;;;3.20;2.90;;;;;;;;;;5032896;28;20187;-85
2021/08/13 07:05:24;;;;;;;3.60;3.30;;;;;;;;;;5041598;28;20202;-84
2021/08/13 07:07:50;;;;;;;3.50;3.20;;;;;;;;;;5028182;28;20175;-85
2021/08/13 07:10:16;;;;;;;6.80;3.40;;;;;;;;;;5042313;28;20192;-85
2021/08/13 07:12:42;;;;;;;6.97;3.25;;;;;;;;;;5039824;28;20179;-84
2021/08/13 07:15:09;;;;;;;2.90;2.67;;;;;;;;;;5047803;28;20199;-85
2021/08/13 07:17:35;;;;;;;3.50;3.20;;;;;;;;;;5049317;28;20493;-85
2021/08/13 07:20:02;;;;;;;3.78;3.47;;;;;;;;;;5030367;28;20230;-85
2021/08/13 07:22:28;;;;;;;4.50;3.50;;;;;;;;;;5049422;28;20180;-85
2021/08/13 07:24:54;;;;;;;2.95;2.65;;;;;;;;;;5039903;28;20621;-84
2021/08/13 07:27:20;;;;;;;4.20;3.80;;;;;;;;;;5037528;28;20183;-84
2021/08/13 07:29:46;;;;;;;5.10;3.65;;;;;;;;;;5047385;28;20466;-84
2021/08/13 07:32:12;;;;;;;4.53;2.93;;;;;;;;;;5030095;28;20188;-84
2021/08/13 07:34:38;;;;;;;3.83;3.53;;;;;;;;;;5042298;28;20427;-84
2021/08/13 07:37:04;;;;;;;3.20;2.90;;;;;;;;;;5046105;28;20463;-84
2021/08/13 07:39:30;;;;;;;5.43;2.83;;;;;;;;;;5046693;28;20498;-85
2021/08/13 07:41:57;;;;;;;6.93;2.80;;;;;;;;;;5049457;28;20466;-85
2021/08/13 07:44:23;;;;;;;2.80;2.47;;;;;;;;;;5045572;28;20188;-84
2021/08/13 07:46:49;;;;;;;2.70;2.43;;;;;;;;;;5046643;28;20431;-85
2021/08/13 07:49:15;;;;;;;3.45;2.60;;;;;;;;;;5036648;28;20470;-84
2021/08/13 07:51:41;;;;;;;2.43;2.23;;;;;;;;;;5041677;28;20192;-84
2021/08/13 07:54:07;;;;;;;2.80;2.50;;;;;;;;;;5046813;28;20439;-85
2021/08/13 07:56:33;;;;;;;3.92;2.88;;;;;;;;;;5048457;28;20468;-85
2021/08/13 07:58:59;;;;;;;6.83;2.87;;;;;;;;;;5046191;28;20246;-84
2021/08/13 08:01:25;;;;;;;2.43;2.23;;;;;;;;;;5045508;28;20425;-85
2021/08/13 08:03:51;;;;;;;2.93;2.60;;;;;;;;;;5045232;28;20845;-84
2021/08/13 08:06:17;;;;;;;2.40;2.07;;;;;;;;;;5045264;28;20418;-85
2021/08/13 08:08:43;;;;;;;3.17;2.53;;;;;;;;;;5030003;28;20411;-84
2021/08/13 08:11:09;;;;;;;2.67;2.07;;;;;;;;;;5030196;28;20421;-84
2021/08/13 08:13:35;;;;;;;3.60;3.07;;;;;;;;;;5031827;28;20484;-85
2021/08/13 08:16:03;;;;;;;2.80;2.50;;;;;;;;;;5044255;28;20506;-84
2021/08/13 08:18:30;;;;;;;2.87;2.57;;;;;;;;;;5048096;28;20486;-85
2021/08/13 08:20:56;;;;;;;2.90;2.70;;;;;;;;;;5045246;28;20436;-84
2021/08/13 08:23:22;;;;;;;3.20;2.87;;;;;;;;;;5030243;28;20395;-85
2021/08/13 08:25:48;;;;;;;2.53;2.33;;;;;;;;;;5029227;28;20433;-85
2021/08/13 08:28:14;;;;;;;3.17;2.87;;;;;;;;;;5046208;28;20415;-84
2021/08/13 08:30:40;;;;;;;3.17;2.87;;;;;;;;;;5047188;28;20510;-83
2021/08/13 08:33:06;;;;;;;2.83;2.63;;;;;;;;;;5045528;28;20435;-85
2021/08/13 08:35:32;;;;;;;2.67;2.23;;;;;;;;;;5030517;28;20440;-85
2021/08/13 08:37:59;;;;;;;2.90;2.60;;;;;;;;;;5045602;28;20464;-85
2021/08/13 08:40:26;;;;;;;5.50;2.47;;;;;;;;;;5036661;28;20426;-84
2021/08/13 08:42:54;;;;;;;2.70;2.50;;;;;;;;;;5035316;28;20457;-85
2021/08/13 08:45:20;;;;;;;2.70;2.50;;;;;;;;;;5038078;28;20448;-85
2021/08/13 08:47:46;;;;;;;3.00;2.30;;;;;;;;;;5046449;28;20413;-84
2021/08/13 08:50:12;;;;;;;3.43;2.20;;;;;;;;;;5028204;28;20406;-84
2021/08/13 08:52:40;;;;;;;4.77;2.83;;;;;;;;;;5041467;28;20436;-85
2021/08/13 08:55:10;;;;;;;3.43;2.43;;;;;;;;;;5037135;28;20459;-84
2021/08/13 08:57:39;;;;;;;2.63;2.23;;;;;;;;;;5033202;28;20436;-84
2021/08/13 09:00:06;;;;;;;3.67;2.90;;;;;;;;;;5034394;28;20447;-85
2021/08/13 09:02:32;;;;;;;4.00;2.60;;;;;;;;;;5044346;28;20410;-85
2021/08/13 09:04:59;;;;;;;3.70;2.60;;;;;;;;;;5028308;28;20503;-85
2021/08/13 09:07:26;;;;;;;3.73;2.67;;;;;;;;;;5043227;28;20518;-85
2021/08/13 09:09:52;;;;;;;5.57;2.87;;;;;;;;;;5046188;28;20455;-84
2021/08/13 09:12:18;;;;;;;3.30;2.57;;;;;;;;;;5044083;28;20850;-85
2021/08/13 09:14:44;;;;;;;2.60;2.40;;;;;;;;;;5032618;28;20453;-85
2021/08/13 09:17:11;;;;;;;3.90;3.00;;;;;;;;;;5043545;28;20430;-84
2021/08/13 09:19:38;;;;;;;2.80;2.60;;;;;;;;;;5033558;28;20475;-85
2021/08/13 09:22:10;;;;;;;3.03;2.17;;;;;;;;;;5043238;28;20930;-84
2021/08/13 09:24:37;;;;;;;3.63;2.43;;;;;;;;;;5040766;28;20418;-85
2021/08/13 09:27:19;;;;;;;3.40;2.53;;;;;;;;;;5033982;28;20415;-84
2021/08/13 09:30:04;;;;;;;3.60;2.93;;;;;;;;;;5045476;28;20450;-84
2021/08/13 09:32:30;;;;;;;3.50;3.20;;;;;;;;;;5046379;28;20424;-84
2021/08/13 09:34:56;;;;;;;3.63;3.07;;;;;;;;;;5042990;28;20416;-84
2021/08/13 09:37:22;;;;;;;3.37;2.80;;;;;;;;;;5045375;28;20507;-84
2021/08/13 09:39:53;;;;;;;3.13;2.60;;;;;;;;;;5039638;28;20806;-84
2021/08/13 09:42:19;;;;;;;3.30;3.00;;;;;;;;;;5038155;28;20424;-85
2021/08/13 09:44:58;;;;;;;3.33;3.03;;;;;;;;;;5043943;28;20435;-84
2021/08/13 09:47:37;;;;;;;3.40;3.07;;;;;;;;;;5044031;28;20466;-84
2021/08/13 09:50:03;;;;;;;3.07;2.73;;;;;;;;;;5035363;28;20405;-84
2021/08/13 09:52:29;;;;;;;3.00;2.53;;;;;;;;;;5041591;28;20423;-86
2021/08/13 09:55:25;;;;;;;2.60;2.40;;;;;;;;;;5043296;28;20480;-85
2021/08/13 09:57:51;;;;;;;3.43;3.00;;;;;;;;;;5062929;28;20446;-83
2021/08/13 10:00:18;;;;;;;2.83;2.63;;;;;;;;;;5033812;28;20481;-86
2021/08/13 10:02:44;;;;;;;2.93;2.73;;;;;;;;;;5031072;28;20433;-86
2021/08/13 10:05:21;;;;;;;5.13;3.70;;;;;;;;;;5043367;28;20395;-84
2021/08/13 10:07:48;;;;;;;3.03;2.67;;;;;;;;;;5028593;28;20424;-84
2021/08/13 10:10:15;;;;;;;3.13;2.80;;;;;;;;;;5032729;28;20457;-84
2021/08/13 10:12:44;;;;;;;3.17;2.93;;;;;;;;;;5039986;28;20416;-83
2021/08/13 10:15:11;;;;;;;2.90;2.70;;;;;;;;;;5043421;28;20409;-82
2021/08/13 10:17:37;;;;;;;3.40;3.10;;;;;;;;;;5028692;28;20464;-82
2021/08/13 10:20:03;;;;;;;3.67;3.23;;;;;;;;;;5025928;28;20446;-82
2021/08/13 10:22:30;;;;;;;3.20;2.67;;;;;;;;;;5040610;28;20432;-84
2021/08/13 10:24:57;;;;;;;6.20;2.80;;;;;;;;;;5042601;28;20446;-81
2021/08/13 10:27:24;;;;;;;3.83;3.43;;;;;;;;;;5044804;28;20502;-83
2021/08/13 10:29:50;;;;;;;4.40;3.47;;;;;;;;;;5044306;28;20580;-83
2021/08/13 10:32:20;;;;;;;4.20;3.00;;;;;;;;;;5028095;28;20439;-82
2021/08/13 10:34:46;;;;;;;3.40;3.10;;;;;;;;;;5037175;28;20420;-82
2021/08/13 10:37:13;;;;;;;2.97;2.67;;;;;;;;;;5045270;28;20468;-83
2021/08/13 10:39:43;;;;;;;6.13;3.40;;;;;;;;;;5041151;28;20433;-83
2021/08/13 10:42:13;;;;;;;3.50;3.20;;;;;;;;;;5033381;28;20462;-82
2021/08/13 10:44:44;;;;;;;4.03;3.67;;;;;;;;;;5042594;28;20436;-83
2021/08/13 10:47:13;;;;;;;4.33;3.27;;;;;;;;;;5027519;28;20467;-82
2021/08/13 10:49:39;;;;;;;5.10;2.97;;;;;;;;;;5044359;28;20985;-82
2021/08/13 10:52:07;;;;;;;3.53;3.23;;;;;;;;;;5041129;28;20445;-83
2021/08/13 10:54:42;;;;;;;3.50;3.00;;;;;;;;;;5041732;28;20883;-82
2021/08/13 10:57:09;;;;;;;3.83;3.53;;;;;;;;;;5050576;28;20447;-83
2021/08/13 10:59:41;;;;;;;3.83;3.43;;;;;;;;;;5051020;28;20448;-82
2021/08/13 11:02:12;;;;;;;3.67;3.37;;;;;;;;;;5032987;28;20456;-82
2021/08/13 11:04:45;;;;;;;5.00;3.37;;;;;;;;;;5051614;28;20394;-83
2021/08/13 11:07:11;;;;;;;3.63;3.33;;;;;;;;;;5050632;28;20439;-83
2021/08/13 11:09:38;;;;;;;3.47;3.17;;;;;;;;;;5048872;28;20512;-82
2021/08/13 11:12:06;;;;;;;3.53;3.23;;;;;;;;;;5048957;28;20531;-82
2021/08/13 11:14:45;;;;;;;3.77;3.47;;;;;;;;;;5034590;28;20443;-83
2021/08/13 11:17:36;;;;;;;3.63;3.23;;;;;;;;;;5046413;28;20441;-83
2021/08/13 11:20:04;;;;;;;3.50;3.20;;;;;;;;;;5061863;28;20498;-83
2021/08/13 11:22:32;;;;;;;4.07;3.77;;;;;;;;;;5049967;28;20418;-84
2021/08/13 11:24:58;;;;;;;4.37;3.97;;;;;;;;;;5043087;28;20454;-83
2021/08/13 11:27:24;;;;;;;5.30;4.47;;;;;;;;;;5038981;28;20443;-83
2021/08/13 11:29:50;;;;;;;4.33;3.60;;;;;;;;;;5037619;28;20431;-83
2021/08/13 11:32:19;;;;;;;3.70;3.37;;;;;;;;;;5032207;28;20471;-83
2021/08/13 11:34:46;;;;;;;5.17;4.30;;;;;;;;;;5033061;28;20414;-82
2021/08/13 11:37:31;;;;;;;3.63;3.33;;;;;;;;;;5048132;28;20467;-82
2021/08/13 11:40:07;;;;;;;4.93;4.37;;;;;;;;;;5048661;28;20454;-81
2021/08/13 11:42:33;;;;;;;3.90;3.60;;;;;;;;;;5049072;28;20462;-83
2021/08/13 11:45:09;;;;;;;3.93;3.53;;;;;;;;;;5048930;28;20436;-81
2021/08/13 11:47:36;;;;;;;3.93;3.63;;;;;;;;;;5049733;28;20438;-83
2021/08/13 11:50:03;;;;;;;4.47;4.03;;;;;;;;;;5033979;28;20491;-82
2021/08/13 11:52:32;;;;;;;4.40;3.97;;;;;;;;;;5045123;28;20993;-83
2021/08/13 11:54:58;;;;;;;4.80;4.07;;;;;;;;;;5052047;28;20455;-83
2021/08/13 11:57:24;;;;;;;3.83;3.53;;;;;;;;;;5050870;28;20988;-82
2021/08/13 11:59:52;;;;;;;6.03;3.83;;;;;;;;;;5048468;28;20462;-83
2021/08/13 12:02:28;;;;;;;4.90;3.93;;;;;;;;;;5046107;28;20420;-83
2021/08/13 12:05:03;;;;;;;4.70;4.30;;;;;;;;;;5030961;28;20922;-83
2021/08/13 12:07:29;;;;;;;3.73;3.43;;;;;;;;;;5041866;28;20418;-82
2021/08/13 12:09:55;;;;;;;4.50;4.10;;;;;;;;;;5045343;28;20444;-84
2021/08/13 12:12:29;;;;;;;4.43;4.03;;;;;;;;;;5045101;28;20441;-83
2021/08/13 12:14:57;;;;;;;4.10;3.80;;;;;;;;;;5046371;28;20757;-82
2021/08/13 12:17:23;;;;;;;4.80;4.40;;;;;;;;;;5029056;28;20894;-83
2021/08/13 12:19:53;;;;;;;4.17;3.77;;;;;;;;;;5030820;28;20469;-82
2021/08/13 12:22:28;;;;;;;4.07;3.67;;;;;;;;;;5046711;28;20440;-82
2021/08/13 12:24:54;;;;;;;3.60;3.30;;;;;;;;;;5048296;28;20453;-83
2021/08/13 12:27:26;;;;;;;5.93;4.43;;;;;;;;;;5043816;28;20441;-82
2021/08/13 12:29:52;;;;;;;4.10;3.80;;;;;;;;;;5031117;28;20550;-82
2021/08/13 12:32:18;;;;;;;4.70;4.30;;;;;;;;;;5046568;28;20509;-83
2021/08/13 12:34:44;;;;;;;4.13;3.47;;;;;;;;;;5031203;28;20512;-84
2021/08/13 12:37:11;;;;;;;3.37;3.17;;;;;;;;;;5035160;28;20532;-83
2021/08/13 12:39:41;;;;;;;3.83;3.30;;;;;;;;;;5040384;28;20446;-83
2021/08/13 12:42:08;;;;;;;3.97;3.57;;;;;;;;;;5047211;28;20441;-84
2021/08/13 12:44:35;;;;;;;3.77;3.47;;;;;;;;;;5044747;28;20480;-84
2021/08/13 12:47:01;;;;;;;4.50;3.60;;;;;;;;;;5040508;28;20930;-82
2021/08/13 12:49:29;;;;;;;3.83;3.53;;;;;;;;;;5047279;28;20443;-83
2021/08/13 12:52:21;;;;;;;3.20;3.00;;;;;;;;;;5047259;28;21030;-83
2021/08/13 12:54:48;;;;;;;3.20;3.00;;;;;;;;;;5076465;28;20451;-83
2021/08/13 12:57:15;;;;;;;2.97;2.73;;;;;;;;;;5043395;28;20540;-82
2021/08/13 12:59:44;;;;;;;3.80;3.50;;;;;;;;;;5032219;28;20454;-84
2021/08/13 13:02:24;;;;;;;3.57;3.27;;;;;;;;;;5027503;28;20456;-84
2021/08/13 13:04:51;;;;;;;4.13;3.67;;;;;;;;;;5039936;28;20482;-84
2021/08/13 13:07:37;;;;;;;4.00;3.70;;;;;;;;;;5047539;28;20439;-83
2021/08/13 13:10:20;;;;;;;4.07;3.77;;;;;;;;;;5037102;28;20861;-84
2021/08/13 13:12:46;;;;;;;4.10;3.80;;;;;;;;;;5039270;28;20432;-83
2021/08/13 13:15:29;;;;;;;4.70;4.40;;;;;;;;;;5047101;28;20440;-84
2021/08/13 13:18:03;;;;;;;3.80;3.50;;;;;;;;;;5043571;28;20471;-85
2021/08/13 13:20:36;;;;;;;4.00;3.70;;;;;;;;;;5044595;28;20439;-85
2021/08/13 13:23:07;;;;;;;3.63;3.40;;;;;;;;;;5041320;28;20405;-84
2021/08/13 13:25:40;;;;;;;3.40;3.03;;;;;;;;;;5047626;28;21014;-84
2021/08/13 13:28:06;;;;;;;4.50;4.13;;;;;;;;;;5035877;28;20440;-83
2021/08/13 13:30:34;;;;;;;4.07;3.77;;;;;;;;;;5038906;28;20436;-84
2021/08/13 13:33:01;;;;;;;3.70;3.40;;;;;;;;;;5045088;28;20474;-84
2021/08/13 13:35:27;;;;;;;4.03;3.27;;;;;;;;;;5044666;28;20470;-84
2021/08/13 13:37:53;;;;;;;5.17;3.33;;;;;;;;;;5029890;28;20511;-84
2021/08/13 13:40:19;;;;;;;3.60;3.30;;;;;;;;;;5045429;28;20447;-85
2021/08/13 13:42:45;;;;;;;4.30;3.97;;;;;;;;;;5044345;28;20432;-83
2021/08/13 13:45:12;;;;;;;3.90;3.30;;;;;;;;;;5044350;28;20432;-85
2021/08/13 13:47:39;;;;;;;3.80;3.47;;;;;;;;;;5030246;28;20443;-84
2021/08/13 13:50:05;;;;;;;3.67;3.37;;;;;;;;;;5027689;28;20424;-84
2021/08/13 13:52:31;;;;;;;6.27;3.73;;;;;;;;;;5033146;28;20439;-84
2021/08/13 13:54:57;;;;;;;3.67;3.47;;;;;;;;;;5033954;28;20512;-85
2021/08/13 13:57:23;;;;;;;4.13;3.73;;;;;;;;;;5032984;28;20460;-84
2021/08/13 13:59:49;;;;;;;3.53;3.33;;;;;;;;;;5032437;28;20434;-84
2021/08/13 14:02:15;;;;;;;3.33;3.13;;;;;;;;;;5044021;28;20416;-83
2021/08/13 14:04:41;;;;;;;5.13;3.40;;;;;;;;;;5033360;28;20902;-83
2021/08/13 14:07:07;;;;;;;4.00;3.80;;;;;;;;;;5040545;28;20440;-84
2021/08/13 14:09:33;;;;;;;3.27;3.00;;;;;;;;;;5039756;28;20999;-84
2021/08/13 14:11:59;;;;;;;3.90;3.47;;;;;;;;;;5030780;28;20444;-82
2021/08/13 14:14:25;;;;;;;3.87;3.53;;;;;;;;;;5027085;28;20445;-84
2021/08/13 14:16:51;;;;;;;3.60;3.30;;;;;;;;;;5029845;28;20480;-83
2021/08/13 14:19:17;;;;;;;4.50;3.47;;;;;;;;;;5041732;28;20476;-84
2021/08/13 14:21:43;;;;;;;3.23;2.93;;;;;;;;;;5043155;28;20451;-82
2021/08/13 14:24:09;;;;;;;3.50;3.20;;;;;;;;;;5044081;28;20533;-84
2021/08/13 14:26:36;;;;;;;3.67;3.37;;;;;;;;;;5028749;28;20430;-84
2021/08/13 14:29:02;;;;;;;4.17;3.77;;;;;;;;;;5026839;28;20420;-83
2021/08/13 14:31:28;;;;;;;4.50;3.47;;;;;;;;;;5046288;28;20973;-83
2021/08/13 14:33:54;;;;;;;5.00;3.60;;;;;;;;;;5037596;28;20430;-84
2021/08/13 14:36:20;;;;;;;4.27;3.97;;;;;;;;;;5035218;28;20459;-83
2021/08/13 14:38:46;;;;;;;3.33;3.03;;;;;;;;;;5041177;28;20450;-84
2021/08/13 14:41:12;;;;;;;3.70;3.40;;;;;;;;;;5026521;28;20428;-82
2021/08/13 14:43:38;;;;;;;4.50;4.07;;;;;;;;;;5042751;28;20458;-84
2021/08/13 14:46:05;;;;;;;3.57;3.27;;;;;;;;;;5045746;28;20485;-83